sensor_id;sensor_type;location;lat;lon;timestamp;P1;durP1;ratioP1;P2;durP2;ratioP2
12956;SDS011;6543;48.836;10.092;2022-09-11T00:02:10;1.43;;;1.00;;
12956;SDS011;6543;48.836;10.092;2022-09-11T00:04:40;4.80;;;1.37;;
12956;SDS011;6543;48.836;10.092;2022-09-11T00:07:06;3.67;;;1.30;;
12956;SDS011;6543;48.836;10.092;2022-09-11T00:09:33;2.10;;;1.30;;
12956;SDS011;6543;48.836;10.092;2022-09-11T00:12:01;2.43;;;1.47;;
12956;SDS011;6543;48.836;10.092;2022-09-11T00:14:28;6.97;;;3.30;;
12956;SDS011;6543;48.836;10.092;2022-09-11T00:16:55;3.43;;;1.47;;
12956;SDS011;6543;48.836;10.092;2022-09-11T00:19:23;6.80;;;1.50;;
12956;SDS011;6543;48.836;10.092;2022-09-11T00:21:50;1.97;;;1.23;;
12956;SDS011;6543;48.836;10.092;2022-09-11T00:24:21;4.63;;;1.90;;
12956;SDS011;6543;48.836;10.092;2022-09-11T00:26:48;4.37;;;1.50;;
12956;SDS011;6543;48.836;10.092;2022-09-11T00:29:14;2.83;;;1.30;;
12956;SDS011;6543;48.836;10.092;2022-09-11T00:31:41;4.60;;;1.27;;
12956;SDS011;6543;48.836;10.092;2022-09-11T00:34:08;4.83;;;1.83;;
12956;SDS011;6543;48.836;10.092;2022-09-11T00:36:36;1.87;;;1.43;;
12956;SDS011;6543;48.836;10.092;2022-09-11T00:39:05;1.60;;;1.17;;
12956;SDS011;6543;48.836;10.092;2022-09-11T00:41:33;2.67;;;1.30;;
12956;SDS011;6543;48.836;10.092;2022-09-11T00:44:01;3.23;;;1.40;;
12956;SDS011;6543;48.836;10.092;2022-09-11T00:46:31;1.60;;;1.10;;
12956;SDS011;6543;48.836;10.092;2022-09-11T00:49:03;3.33;;;1.20;;
12956;SDS011;6543;48.836;10.092;2022-09-11T00:51:39;3.20;;;1.27;;
12956;SDS011;6543;48.836;10.092;2022-09-11T00:54:07;2.73;;;1.27;;
12956;SDS011;6543;48.836;10.092;2022-09-11T00:56:37;2.03;;;1.83;;
12956;SDS011;6543;48.836;10.092;2022-09-11T00:59:06;4.37;;;1.10;;
12956;SDS011;6543;48.836;10.092;2022-09-11T01:01:34;2.80;;;1.00;;
12956;SDS011;6543;48.836;10.092;2022-09-11T01:04:01;2.00;;;1.00;;
12956;SDS011;6543;48.836;10.092;2022-09-11T01:06:30;2.60;;;1.10;;
12956;SDS011;6543;48.836;10.092;2022-09-11T01:08:59;2.70;;;1.20;;
12956;SDS011;6543;48.836;10.092;2022-09-11T01:11:30;5.23;;;1.10;;
12956;SDS011;6543;48.836;10.092;2022-09-11T01:14:07;2.90;;;1.27;;
12956;SDS011;6543;48.836;10.092;2022-09-11T01:16:42;3.30;;;1.23;;
12956;SDS011;6543;48.836;10.092;2022-09-11T01:19:17;2.53;;;1.07;;
12956;SDS011;6543;48.836;10.092;2022-09-11T01:22:01;4.00;;;1.40;;
12956;SDS011;6543;48.836;10.092;2022-09-11T01:27:42;3.37;;;1.20;;
12956;SDS011;6543;48.836;10.092;2022-09-11T01:30:12;1.50;;;1.00;;
12956;SDS011;6543;48.836;10.092;2022-09-11T01:32:43;4.27;;;1.10;;
12956;SDS011;6543;48.836;10.092;2022-09-11T01:35:24;4.00;;;1.00;;
12956;SDS011;6543;48.836;10.092;2022-09-11T01:37:59;1.53;;;0.70;;
12956;SDS011;6543;48.836;10.092;2022-09-11T01:40:30;2.27;;;0.97;;
12956;SDS011;6543;48.836;10.092;2022-09-11T01:43:05;2.23;;;1.17;;
12956;SDS011;6543;48.836;10.092;2022-09-11T01:45:38;1.27;;;0.80;;
12956;SDS011;6543;48.836;10.092;2022-09-11T01:48:07;4.73;;;0.90;;
12956;SDS011;6543;48.836;10.092;2022-09-11T01:50:37;2.60;;;1.10;;
12956;SDS011;6543;48.836;10.092;2022-09-11T01:53:06;3.60;;;1.20;;
12956;SDS011;6543;48.836;10.092;2022-09-11T01:55:38;2.43;;;1.00;;
12956;SDS011;6543;48.836;10.092;2022-09-11T01:58:09;1.80;;;0.90;;
12956;SDS011;6543;48.836;10.092;2022-09-11T02:00:39;0.83;;;0.77;;
12956;SDS011;6543;48.836;10.092;2022-09-11T02:03:09;2.23;;;1.10;;
12956;SDS011;6543;48.836;10.092;2022-09-11T02:05:42;1.57;;;0.87;;
12956;SDS011;6543;48.836;10.092;2022-09-11T02:08:12;0.93;;;0.87;;
12956;SDS011;6543;48.836;10.092;2022-09-11T02:10:44;4.37;;;1.17;;
12956;SDS011;6543;48.836;10.092;2022-09-11T02:13:18;3.37;;;1.13;;
12956;SDS011;6543;48.836;10.092;2022-09-11T02:15:49;2.93;;;1.23;;
12956;SDS011;6543;48.836;10.092;2022-09-11T02:18:21;1.47;;;1.03;;
12956;SDS011;6543;48.836;10.092;2022-09-11T02:20:54;1.47;;;1.00;;
12956;SDS011;6543;48.836;10.092;2022-09-11T02:23:21;3.10;;;1.20;;
12956;SDS011;6543;48.836;10.092;2022-09-11T02:25:49;3.17;;;1.10;;
12956;SDS011;6543;48.836;10.092;2022-09-11T02:28:16;2.50;;;1.40;;
12956;SDS011;6543;48.836;10.092;2022-09-11T02:30:44;1.97;;;1.30;;
12956;SDS011;6543;48.836;10.092;2022-09-11T02:33:25;6.63;;;1.43;;
12956;SDS011;6543;48.836;10.092;2022-09-11T02:35:53;2.20;;;1.50;;
12956;SDS011;6543;48.836;10.092;2022-09-11T02:38:39;2.40;;;1.47;;
12956;SDS011;6543;48.836;10.092;2022-09-11T02:41:11;3.93;;;1.70;;
12956;SDS011;6543;48.836;10.092;2022-09-11T02:43:51;2.50;;;1.37;;
12956;SDS011;6543;48.836;10.092;2022-09-11T02:46:38;3.13;;;1.53;;
12956;SDS011;6543;48.836;10.092;2022-09-11T02:49:20;2.93;;;1.43;;
12956;SDS011;6543;48.836;10.092;2022-09-11T02:51:58;2.50;;;1.80;;
12956;SDS011;6543;48.836;10.092;2022-09-11T02:54:31;2.17;;;1.27;;
12956;SDS011;6543;48.836;10.092;2022-09-11T02:57:06;3.00;;;1.60;;
12956;SDS011;6543;48.836;10.092;2022-09-11T02:59:41;1.33;;;1.23;;
12956;SDS011;6543;48.836;10.092;2022-09-11T03:02:11;1.73;;;1.63;;
12956;SDS011;6543;48.836;10.092;2022-09-11T03:04:40;3.03;;;1.97;;
12956;SDS011;6543;48.836;10.092;2022-09-11T03:07:07;7.07;;;2.10;;
12956;SDS011;6543;48.836;10.092;2022-09-11T03:09:34;1.67;;;1.57;;
12956;SDS011;6543;48.836;10.092;2022-09-11T03:12:01;2.93;;;1.83;;
12956;SDS011;6543;48.836;10.092;2022-09-11T03:14:29;4.40;;;2.27;;
12956;SDS011;6543;48.836;10.092;2022-09-11T03:16:57;4.23;;;1.90;;
12956;SDS011;6543;48.836;10.092;2022-09-11T03:19:24;3.47;;;1.77;;
12956;SDS011;6543;48.836;10.092;2022-09-11T03:21:51;3.93;;;2.30;;
12956;SDS011;6543;48.836;10.092;2022-09-11T03:24:18;2.00;;;1.90;;
12956;SDS011;6543;48.836;10.092;2022-09-11T03:26:44;4.00;;;2.30;;
12956;SDS011;6543;48.836;10.092;2022-09-11T03:29:11;4.53;;;2.37;;
12956;SDS011;6543;48.836;10.092;2022-09-11T03:31:38;2.47;;;2.20;;
12956;SDS011;6543;48.836;10.092;2022-09-11T03:34:06;3.50;;;2.27;;
12956;SDS011;6543;48.836;10.092;2022-09-11T03:36:34;5.43;;;2.10;;
12956;SDS011;6543;48.836;10.092;2022-09-11T03:39:01;5.60;;;2.70;;
12956;SDS011;6543;48.836;10.092;2022-09-11T03:41:29;5.50;;;3.00;;
12956;SDS011;6543;48.836;10.092;2022-09-11T03:43:56;4.03;;;2.60;;
12956;SDS011;6543;48.836;10.092;2022-09-11T03:46:23;4.93;;;2.80;;
12956;SDS011;6543;48.836;10.092;2022-09-11T03:48:51;4.57;;;3.17;;
12956;SDS011;6543;48.836;10.092;2022-09-11T03:51:19;2.77;;;2.57;;
12956;SDS011;6543;48.836;10.092;2022-09-11T03:53:46;4.57;;;3.67;;
12956;SDS011;6543;48.836;10.092;2022-09-11T03:56:13;5.10;;;2.77;;
12956;SDS011;6543;48.836;10.092;2022-09-11T03:58:40;4.13;;;3.73;;
12956;SDS011;6543;48.836;10.092;2022-09-11T04:01:08;4.43;;;3.37;;
12956;SDS011;6543;48.836;10.092;2022-09-11T04:03:36;8.73;;;3.50;;
12956;SDS011;6543;48.836;10.092;2022-09-11T04:06:03;4.90;;;3.40;;
12956;SDS011;6543;48.836;10.092;2022-09-11T04:08:31;3.73;;;3.43;;
12956;SDS011;6543;48.836;10.092;2022-09-11T04:10:59;4.40;;;3.33;;
12956;SDS011;6543;48.836;10.092;2022-09-11T04:13:27;3.63;;;3.10;;
12956;SDS011;6543;48.836;10.092;2022-09-11T04:15:57;3.67;;;2.80;;
12956;SDS011;6543;48.836;10.092;2022-09-11T04:18:25;4.07;;;3.40;;
12956;SDS011;6543;48.836;10.092;2022-09-11T04:20:52;6.97;;;3.33;;
12956;SDS011;6543;48.836;10.092;2022-09-11T04:23:19;7.70;;;3.87;;
12956;SDS011;6543;48.836;10.092;2022-09-11T04:25:47;4.57;;;4.00;;
12956;SDS011;6543;48.836;10.092;2022-09-11T04:28:14;5.03;;;4.07;;
12956;SDS011;6543;48.836;10.092;2022-09-11T04:30:41;5.40;;;4.03;;
12956;SDS011;6543;48.836;10.092;2022-09-11T04:33:08;4.60;;;4.20;;
12956;SDS011;6543;48.836;10.092;2022-09-11T04:35:37;6.03;;;4.10;;
12956;SDS011;6543;48.836;10.092;2022-09-11T04:38:05;7.43;;;4.70;;
12956;SDS011;6543;48.836;10.092;2022-09-11T04:40:32;9.90;;;4.47;;
12956;SDS011;6543;48.836;10.092;2022-09-11T04:43:01;5.40;;;4.27;;
12956;SDS011;6543;48.836;10.092;2022-09-11T04:45:28;7.13;;;4.77;;
12956;SDS011;6543;48.836;10.092;2022-09-11T04:47:57;5.30;;;4.80;;
12956;SDS011;6543;48.836;10.092;2022-09-11T04:50:25;8.87;;;4.90;;
12956;SDS011;6543;48.836;10.092;2022-09-11T04:52:52;5.60;;;5.03;;
12956;SDS011;6543;48.836;10.092;2022-09-11T04:55:19;7.43;;;5.60;;
12956;SDS011;6543;48.836;10.092;2022-09-11T04:57:46;8.60;;;5.60;;
12956;SDS011;6543;48.836;10.092;2022-09-11T05:00:15;7.80;;;4.93;;
12956;SDS011;6543;48.836;10.092;2022-09-11T05:02:42;9.67;;;5.67;;
12956;SDS011;6543;48.836;10.092;2022-09-11T05:05:09;8.63;;;5.17;;
12956;SDS011;6543;48.836;10.092;2022-09-11T05:07:36;6.13;;;4.83;;
12956;SDS011;6543;48.836;10.092;2022-09-11T05:10:03;8.30;;;5.40;;
12956;SDS011;6543;48.836;10.092;2022-09-11T05:12:31;6.83;;;5.50;;
12956;SDS011;6543;48.836;10.092;2022-09-11T05:14:58;9.07;;;5.37;;
12956;SDS011;6543;48.836;10.092;2022-09-11T05:17:27;7.27;;;5.87;;
12956;SDS011;6543;48.836;10.092;2022-09-11T05:19:54;8.70;;;6.27;;
12956;SDS011;6543;48.836;10.092;2022-09-11T05:22:21;6.77;;;6.17;;
12956;SDS011;6543;48.836;10.092;2022-09-11T05:24:48;8.27;;;6.20;;
12956;SDS011;6543;48.836;10.092;2022-09-11T05:27:15;7.87;;;6.27;;
12956;SDS011;6543;48.836;10.092;2022-09-11T05:29:42;7.43;;;5.93;;
12956;SDS011;6543;48.836;10.092;2022-09-11T05:32:09;7.70;;;6.67;;
12956;SDS011;6543;48.836;10.092;2022-09-11T05:34:38;9.00;;;7.07;;
12956;SDS011;6543;48.836;10.092;2022-09-11T05:37:05;8.97;;;7.33;;
12956;SDS011;6543;48.836;10.092;2022-09-11T05:39:32;8.47;;;7.60;;
12956;SDS011;6543;48.836;10.092;2022-09-11T05:41:59;9.00;;;8.20;;
12956;SDS011;6543;48.836;10.092;2022-09-11T05:44:25;9.80;;;8.80;;
12956;SDS011;6543;48.836;10.092;2022-09-11T05:46:54;10.10;;;8.97;;
12956;SDS011;6543;48.836;10.092;2022-09-11T05:49:22;11.00;;;9.27;;
12956;SDS011;6543;48.836;10.092;2022-09-11T05:51:51;12.40;;;9.93;;
12956;SDS011;6543;48.836;10.092;2022-09-11T05:54:18;11.93;;;10.00;;
12956;SDS011;6543;48.836;10.092;2022-09-11T05:56:44;11.93;;;10.53;;
12956;SDS011;6543;48.836;10.092;2022-09-11T05:59:11;14.53;;;11.03;;
12956;SDS011;6543;48.836;10.092;2022-09-11T06:01:41;12.23;;;11.17;;
12956;SDS011;6543;48.836;10.092;2022-09-11T06:04:09;13.83;;;11.93;;
12956;SDS011;6543;48.836;10.092;2022-09-11T06:06:36;13.03;;;11.70;;
12956;SDS011;6543;48.836;10.092;2022-09-11T06:09:04;14.70;;;11.60;;
12956;SDS011;6543;48.836;10.092;2022-09-11T06:11:31;15.90;;;11.27;;
12956;SDS011;6543;48.836;10.092;2022-09-11T06:13:58;12.33;;;11.13;;
12956;SDS011;6543;48.836;10.092;2022-09-11T06:16:26;12.70;;;11.50;;
12956;SDS011;6543;48.836;10.092;2022-09-11T06:18:55;13.03;;;11.37;;
12956;SDS011;6543;48.836;10.092;2022-09-11T06:21:23;14.17;;;12.27;;
12956;SDS011;6543;48.836;10.092;2022-09-11T06:23:51;13.90;;;12.20;;
12956;SDS011;6543;48.836;10.092;2022-09-11T06:26:20;15.30;;;12.23;;
12956;SDS011;6543;48.836;10.092;2022-09-11T06:28:49;13.47;;;12.37;;
12956;SDS011;6543;48.836;10.092;2022-09-11T06:31:17;13.27;;;11.97;;
12956;SDS011;6543;48.836;10.092;2022-09-11T06:33:45;13.43;;;12.17;;
12956;SDS011;6543;48.836;10.092;2022-09-11T06:36:13;14.13;;;12.60;;
12956;SDS011;6543;48.836;10.092;2022-09-11T06:38:41;14.23;;;13.00;;
12956;SDS011;6543;48.836;10.092;2022-09-11T06:41:09;14.63;;;13.23;;
12956;SDS011;6543;48.836;10.092;2022-09-11T06:43:39;14.10;;;12.80;;
12956;SDS011;6543;48.836;10.092;2022-09-11T06:46:07;14.13;;;12.40;;
12956;SDS011;6543;48.836;10.092;2022-09-11T06:48:36;14.70;;;13.23;;
12956;SDS011;6543;48.836;10.092;2022-09-11T06:51:04;15.50;;;12.83;;
12956;SDS011;6543;48.836;10.092;2022-09-11T06:53:31;14.20;;;12.80;;
12956;SDS011;6543;48.836;10.092;2022-09-11T06:55:59;14.20;;;12.67;;
12956;SDS011;6543;48.836;10.092;2022-09-11T06:58:26;13.50;;;12.23;;
12956;SDS011;6543;48.836;10.092;2022-09-11T07:00:55;11.67;;;10.77;;
12956;SDS011;6543;48.836;10.092;2022-09-11T07:03:27;14.30;;;11.53;;
12956;SDS011;6543;48.836;10.092;2022-09-11T07:05:54;13.23;;;11.93;;
12956;SDS011;6543;48.836;10.092;2022-09-11T07:08:21;13.13;;;11.07;;
12956;SDS011;6543;48.836;10.092;2022-09-11T07:10:48;11.43;;;10.33;;
12956;SDS011;6543;48.836;10.092;2022-09-11T07:13:14;12.57;;;11.23;;
12956;SDS011;6543;48.836;10.092;2022-09-11T07:15:41;12.13;;;10.87;;
12956;SDS011;6543;48.836;10.092;2022-09-11T07:18:09;11.77;;;10.87;;
12956;SDS011;6543;48.836;10.092;2022-09-11T07:20:37;11.93;;;10.70;;
12956;SDS011;6543;48.836;10.092;2022-09-11T07:23:05;11.33;;;10.23;;
12956;SDS011;6543;48.836;10.092;2022-09-11T07:25:33;11.40;;;10.03;;
12956;SDS011;6543;48.836;10.092;2022-09-11T07:28:02;11.50;;;10.40;;
12956;SDS011;6543;48.836;10.092;2022-09-11T07:30:29;10.63;;;9.73;;
12956;SDS011;6543;48.836;10.092;2022-09-11T07:32:57;11.07;;;10.07;;
12956;SDS011;6543;48.836;10.092;2022-09-11T07:35:25;10.27;;;9.27;;
12956;SDS011;6543;48.836;10.092;2022-09-11T07:37:52;11.47;;;10.23;;
12956;SDS011;6543;48.836;10.092;2022-09-11T07:40:19;10.93;;;10.03;;
12956;SDS011;6543;48.836;10.092;2022-09-11T07:42:46;11.17;;;10.07;;
12956;SDS011;6543;48.836;10.092;2022-09-11T07:45:13;8.80;;;8.00;;
12956;SDS011;6543;48.836;10.092;2022-09-11T07:47:41;10.70;;;9.80;;
12956;SDS011;6543;48.836;10.092;2022-09-11T07:50:08;10.97;;;9.87;;
12956;SDS011;6543;48.836;10.092;2022-09-11T07:52:36;10.37;;;9.43;;
12956;SDS011;6543;48.836;10.092;2022-09-11T07:55:04;9.97;;;9.03;;
12956;SDS011;6543;48.836;10.092;2022-09-11T07:57:31;9.23;;;8.43;;
12956;SDS011;6543;48.836;10.092;2022-09-11T07:59:58;9.30;;;8.50;;
12956;SDS011;6543;48.836;10.092;2022-09-11T08:02:25;10.17;;;8.20;;
12956;SDS011;6543;48.836;10.092;2022-09-11T08:04:52;8.33;;;7.63;;
12956;SDS011;6543;48.836;10.092;2022-09-11T08:07:19;9.87;;;8.97;;
12956;SDS011;6543;48.836;10.092;2022-09-11T08:09:48;8.60;;;7.77;;
12956;SDS011;6543;48.836;10.092;2022-09-11T08:12:15;8.57;;;7.80;;
12956;SDS011;6543;48.836;10.092;2022-09-11T08:14:43;8.83;;;7.90;;
12956;SDS011;6543;48.836;10.092;2022-09-11T08:17:11;8.87;;;7.83;;
12956;SDS011;6543;48.836;10.092;2022-09-11T08:19:37;8.30;;;7.53;;
12956;SDS011;6543;48.836;10.092;2022-09-11T08:22:04;8.33;;;7.50;;
12956;SDS011;6543;48.836;10.092;2022-09-11T08:24:31;7.43;;;6.83;;
12956;SDS011;6543;48.836;10.092;2022-09-11T08:26:59;8.70;;;6.93;;
12956;SDS011;6543;48.836;10.092;2022-09-11T08:29:27;7.13;;;6.53;;
12956;SDS011;6543;48.836;10.092;2022-09-11T08:31:54;7.23;;;6.63;;
12956;SDS011;6543;48.836;10.092;2022-09-11T08:34:21;7.33;;;6.63;;
12956;SDS011;6543;48.836;10.092;2022-09-11T08:36:48;6.27;;;5.67;;
12956;SDS011;6543;48.836;10.092;2022-09-11T08:39:16;8.87;;;8.03;;
12956;SDS011;6543;48.836;10.092;2022-09-11T08:41:44;7.00;;;6.30;;
12956;SDS011;6543;48.836;10.092;2022-09-11T08:44:17;6.37;;;5.77;;
12956;SDS011;6543;48.836;10.092;2022-09-11T08:46:47;8.33;;;6.37;;
12956;SDS011;6543;48.836;10.092;2022-09-11T08:49:18;6.37;;;5.87;;
12956;SDS011;6543;48.836;10.092;2022-09-11T08:51:49;6.30;;;5.47;;
12956;SDS011;6543;48.836;10.092;2022-09-11T08:54:21;5.60;;;5.10;;
12956;SDS011;6543;48.836;10.092;2022-09-11T08:56:51;5.63;;;5.00;;
12956;SDS011;6543;48.836;10.092;2022-09-11T08:59:31;6.17;;;5.50;;
12956;SDS011;6543;48.836;10.092;2022-09-11T09:02:10;6.40;;;5.80;;
12956;SDS011;6543;48.836;10.092;2022-09-11T09:04:55;4.53;;;4.13;;
12956;SDS011;6543;48.836;10.092;2022-09-11T09:07:34;4.13;;;3.83;;
12956;SDS011;6543;48.836;10.092;2022-09-11T09:10:10;5.17;;;4.67;;
12956;SDS011;6543;48.836;10.092;2022-09-11T09:12:50;6.37;;;5.47;;
12956;SDS011;6543;48.836;10.092;2022-09-11T09:15:29;4.83;;;4.20;;
12956;SDS011;6543;48.836;10.092;2022-09-11T09:18:08;31.70;;;25.47;;
12956;SDS011;6543;48.836;10.092;2022-09-11T09:20:39;5.83;;;5.13;;
12956;SDS011;6543;48.836;10.092;2022-09-11T09:23:11;5.87;;;4.63;;
12956;SDS011;6543;48.836;10.092;2022-09-11T09:25:44;4.33;;;3.93;;
12956;SDS011;6543;48.836;10.092;2022-09-11T09:28:15;7.13;;;5.80;;
12956;SDS011;6543;48.836;10.092;2022-09-11T09:30:48;5.70;;;5.17;;
12956;SDS011;6543;48.836;10.092;2022-09-11T09:33:21;4.83;;;4.50;;
12956;SDS011;6543;48.836;10.092;2022-09-11T09:35:58;6.13;;;4.40;;
12956;SDS011;6543;48.836;10.092;2022-09-11T09:38:36;4.23;;;3.80;;
12956;SDS011;6543;48.836;10.092;2022-09-11T09:41:07;6.90;;;4.53;;
12956;SDS011;6543;48.836;10.092;2022-09-11T09:43:52;6.27;;;4.33;;
12956;SDS011;6543;48.836;10.092;2022-09-11T09:46:29;9.87;;;5.53;;
12956;SDS011;6543;48.836;10.092;2022-09-11T09:49:06;6.60;;;4.90;;
12956;SDS011;6543;48.836;10.092;2022-09-11T09:51:34;5.03;;;4.20;;
12956;SDS011;6543;48.836;10.092;2022-09-11T09:54:01;7.10;;;6.20;;
12956;SDS011;6543;48.836;10.092;2022-09-11T09:56:29;4.70;;;4.37;;
12956;SDS011;6543;48.836;10.092;2022-09-11T09:59:01;6.50;;;5.40;;
12956;SDS011;6543;48.836;10.092;2022-09-11T10:01:43;5.60;;;4.50;;
12956;SDS011;6543;48.836;10.092;2022-09-11T10:04:13;14.27;;;12.20;;
12956;SDS011;6543;48.836;10.092;2022-09-11T10:06:42;11.47;;;9.53;;
12956;SDS011;6543;48.836;10.092;2022-09-11T10:09:23;7.87;;;5.60;;
12956;SDS011;6543;48.836;10.092;2022-09-11T10:11:56;7.10;;;5.90;;
12956;SDS011;6543;48.836;10.092;2022-09-11T10:14:27;6.67;;;6.07;;
12956;SDS011;6543;48.836;10.092;2022-09-11T10:16:59;3.60;;;3.30;;
12956;SDS011;6543;48.836;10.092;2022-09-11T10:19:34;3.67;;;3.37;;
12956;SDS011;6543;48.836;10.092;2022-09-11T10:22:16;6.73;;;4.60;;
12956;SDS011;6543;48.836;10.092;2022-09-11T10:25:04;5.57;;;3.37;;
12956;SDS011;6543;48.836;10.092;2022-09-11T10:27:48;8.67;;;6.07;;
12956;SDS011;6543;48.836;10.092;2022-09-11T10:30:29;7.43;;;6.03;;
12956;SDS011;6543;48.836;10.092;2022-09-11T10:33:00;5.70;;;3.77;;
12956;SDS011;6543;48.836;10.092;2022-09-11T10:35:30;11.17;;;8.17;;
12956;SDS011;6543;48.836;10.092;2022-09-11T10:38:03;6.93;;;5.23;;
12956;SDS011;6543;48.836;10.092;2022-09-11T10:40:42;6.73;;;4.83;;
12956;SDS011;6543;48.836;10.092;2022-09-11T10:43:23;4.23;;;3.80;;
12956;SDS011;6543;48.836;10.092;2022-09-11T10:46:00;4.07;;;3.67;;
12956;SDS011;6543;48.836;10.092;2022-09-11T10:48:30;4.67;;;4.27;;
12956;SDS011;6543;48.836;10.092;2022-09-11T10:51:03;4.73;;;4.27;;
12956;SDS011;6543;48.836;10.092;2022-09-11T10:53:32;7.57;;;6.67;;
12956;SDS011;6543;48.836;10.092;2022-09-11T10:56:06;5.27;;;4.40;;
12956;SDS011;6543;48.836;10.092;2022-09-11T10:58:35;2.60;;;2.40;;
12956;SDS011;6543;48.836;10.092;2022-09-11T11:01:07;3.17;;;2.57;;
12956;SDS011;6543;48.836;10.092;2022-09-11T11:03:35;3.03;;;2.63;;
12956;SDS011;6543;48.836;10.092;2022-09-11T11:06:04;3.67;;;2.70;;
12956;SDS011;6543;48.836;10.092;2022-09-11T11:08:48;3.07;;;2.60;;
12956;SDS011;6543;48.836;10.092;2022-09-11T11:11:26;4.83;;;2.40;;
12956;SDS011;6543;48.836;10.092;2022-09-11T11:14:11;2.33;;;2.10;;
12956;SDS011;6543;48.836;10.092;2022-09-11T11:16:56;3.33;;;2.20;;
12956;SDS011;6543;48.836;10.092;2022-09-11T11:19:35;3.20;;;2.80;;
12956;SDS011;6543;48.836;10.092;2022-09-11T11:22:16;4.90;;;2.63;;
12956;SDS011;6543;48.836;10.092;2022-09-11T11:24:58;3.77;;;2.70;;
12956;SDS011;6543;48.836;10.092;2022-09-11T11:27:42;4.03;;;2.57;;
12956;SDS011;6543;48.836;10.092;2022-09-11T11:30:32;3.07;;;2.83;;
12956;SDS011;6543;48.836;10.092;2022-09-11T11:33:11;3.83;;;2.53;;
12956;SDS011;6543;48.836;10.092;2022-09-11T11:36:09;18.67;;;13.53;;
12956;SDS011;6543;48.836;10.092;2022-09-11T11:38:45;3.60;;;3.00;;
12956;SDS011;6543;48.836;10.092;2022-09-11T11:41:17;10.17;;;5.57;;
12956;SDS011;6543;48.836;10.092;2022-09-11T11:43:46;4.20;;;3.80;;
12956;SDS011;6543;48.836;10.092;2022-09-11T11:46:16;2.40;;;1.90;;
12956;SDS011;6543;48.836;10.092;2022-09-11T11:48:49;6.23;;;3.30;;
12956;SDS011;6543;48.836;10.092;2022-09-11T11:51:20;2.63;;;2.43;;
12956;SDS011;6543;48.836;10.092;2022-09-11T11:53:53;4.70;;;2.37;;
12956;SDS011;6543;48.836;10.092;2022-09-11T11:56:29;3.93;;;3.53;;
12956;SDS011;6543;48.836;10.092;2022-09-11T11:59:03;8.07;;;4.27;;
12956;SDS011;6543;48.836;10.092;2022-09-11T12:01:39;4.73;;;3.30;;
12956;SDS011;6543;48.836;10.092;2022-09-11T12:04:12;4.43;;;3.53;;
12956;SDS011;6543;48.836;10.092;2022-09-11T12:06:49;4.47;;;3.63;;
12956;SDS011;6543;48.836;10.092;2022-09-11T12:09:17;6.13;;;4.97;;
12956;SDS011;6543;48.836;10.092;2022-09-11T12:11:44;11.63;;;9.17;;
12956;SDS011;6543;48.836;10.092;2022-09-11T12:14:23;5.67;;;3.60;;
12956;SDS011;6543;48.836;10.092;2022-09-11T12:16:52;3.27;;;3.07;;
12956;SDS011;6543;48.836;10.092;2022-09-11T12:19:20;4.10;;;3.70;;
12956;SDS011;6543;48.836;10.092;2022-09-11T12:24:50;5.83;;;4.00;;
12956;SDS011;6543;48.836;10.092;2022-09-11T12:27:31;4.40;;;3.93;;
12956;SDS011;6543;48.836;10.092;2022-09-11T12:30:20;4.23;;;3.80;;
12956;SDS011;6543;48.836;10.092;2022-09-11T12:32:50;4.33;;;3.80;;
12956;SDS011;6543;48.836;10.092;2022-09-11T12:35:20;3.93;;;3.10;;
12956;SDS011;6543;48.836;10.092;2022-09-11T12:37:58;4.20;;;3.23;;
12956;SDS011;6543;48.836;10.092;2022-09-11T12:40:30;6.60;;;3.60;;
12956;SDS011;6543;48.836;10.092;2022-09-11T12:43:15;3.90;;;3.60;;
12956;SDS011;6543;48.836;10.092;2022-09-11T12:45:53;3.90;;;3.53;;
12956;SDS011;6543;48.836;10.092;2022-09-11T12:48:21;3.97;;;3.33;;
12956;SDS011;6543;48.836;10.092;2022-09-11T12:50:51;10.77;;;7.00;;
12956;SDS011;6543;48.836;10.092;2022-09-11T12:53:22;4.57;;;3.10;;
12956;SDS011;6543;48.836;10.092;2022-09-11T12:55:52;15.80;;;13.50;;
12956;SDS011;6543;48.836;10.092;2022-09-11T12:58:24;4.13;;;3.83;;
12956;SDS011;6543;48.836;10.092;2022-09-11T13:01:05;3.83;;;3.20;;
12956;SDS011;6543;48.836;10.092;2022-09-11T13:03:45;3.23;;;2.93;;
12956;SDS011;6543;48.836;10.092;2022-09-11T13:06:17;10.23;;;8.03;;
12956;SDS011;6543;48.836;10.092;2022-09-11T13:08:47;2.87;;;2.60;;
12956;SDS011;6543;48.836;10.092;2022-09-11T13:11:36;4.83;;;3.17;;
12956;SDS011;6543;48.836;10.092;2022-09-11T13:14:38;2.70;;;2.40;;
12956;SDS011;6543;48.836;10.092;2022-09-11T13:17:16;8.17;;;4.33;;
12956;SDS011;6543;48.836;10.092;2022-09-11T13:19:50;6.00;;;3.30;;
12956;SDS011;6543;48.836;10.092;2022-09-11T13:22:21;2.33;;;2.13;;
12956;SDS011;6543;48.836;10.092;2022-09-11T13:24:51;2.87;;;2.40;;
12956;SDS011;6543;48.836;10.092;2022-09-11T13:27:30;2.83;;;2.40;;
12956;SDS011;6543;48.836;10.092;2022-09-11T13:30:02;4.32;;;2.80;;
12956;SDS011;6543;48.836;10.092;2022-09-11T13:32:30;2.90;;;2.70;;
12956;SDS011;6543;48.836;10.092;2022-09-11T13:34:58;6.23;;;5.50;;
12956;SDS011;6543;48.836;10.092;2022-09-11T13:37:34;2.92;;;2.30;;
12956;SDS011;6543;48.836;10.092;2022-09-11T13:40:04;3.43;;;2.70;;
12956;SDS011;6543;48.836;10.092;2022-09-11T13:42:39;4.13;;;3.30;;
12956;SDS011;6543;48.836;10.092;2022-09-11T13:45:06;4.57;;;2.77;;
12956;SDS011;6543;48.836;10.092;2022-09-11T13:47:41;6.03;;;5.43;;
12956;SDS011;6543;48.836;10.092;2022-09-11T13:50:08;4.20;;;2.47;;
12956;SDS011;6543;48.836;10.092;2022-09-11T13:52:38;5.03;;;3.60;;
12956;SDS011;6543;48.836;10.092;2022-09-11T13:55:09;3.83;;;3.07;;
12956;SDS011;6543;48.836;10.092;2022-09-11T13:57:50;12.00;;;8.50;;
12956;SDS011;6543;48.836;10.092;2022-09-11T14:00:34;4.03;;;3.50;;
12956;SDS011;6543;48.836;10.092;2022-09-11T14:03:03;3.85;;;3.55;;
12956;SDS011;6543;48.836;10.092;2022-09-11T14:05:31;3.05;;;2.50;;
12956;SDS011;6543;48.836;10.092;2022-09-11T14:08:01;3.13;;;2.33;;
12956;SDS011;6543;48.836;10.092;2022-09-11T14:10:33;3.80;;;2.90;;
12956;SDS011;6543;48.836;10.092;2022-09-11T14:13:12;2.38;;;2.17;;
12956;SDS011;6543;48.836;10.092;2022-09-11T14:15:43;4.37;;;2.50;;
12956;SDS011;6543;48.836;10.092;2022-09-11T14:18:22;5.97;;;4.68;;
12956;SDS011;6543;48.836;10.092;2022-09-11T14:20:52;3.22;;;2.92;;
12956;SDS011;6543;48.836;10.092;2022-09-11T14:23:22;3.92;;;3.40;;
12956;SDS011;6543;48.836;10.092;2022-09-11T14:26:12;6.63;;;5.20;;
12956;SDS011;6543;48.836;10.092;2022-09-11T14:29:02;3.97;;;2.80;;
12956;SDS011;6543;48.836;10.092;2022-09-11T14:31:32;3.20;;;2.63;;
12956;SDS011;6543;48.836;10.092;2022-09-11T14:34:14;2.88;;;2.42;;
12956;SDS011;6543;48.836;10.092;2022-09-11T14:36:44;4.82;;;4.18;;
12956;SDS011;6543;48.836;10.092;2022-09-11T14:39:17;6.97;;;4.28;;
12956;SDS011;6543;48.836;10.092;2022-09-11T14:41:52;3.65;;;3.35;;
12956;SDS011;6543;48.836;10.092;2022-09-11T14:44:19;3.03;;;2.83;;
12956;SDS011;6543;48.836;10.092;2022-09-11T14:46:48;9.70;;;8.20;;
12956;SDS011;6543;48.836;10.092;2022-09-11T14:49:15;3.60;;;3.30;;
12956;SDS011;6543;48.836;10.092;2022-09-11T14:51:42;4.72;;;3.60;;
12956;SDS011;6543;48.836;10.092;2022-09-11T14:54:13;7.32;;;4.57;;
12956;SDS011;6543;48.836;10.092;2022-09-11T14:56:41;6.43;;;4.65;;
12956;SDS011;6543;48.836;10.092;2022-09-11T14:59:10;4.57;;;3.40;;
12956;SDS011;6543;48.836;10.092;2022-09-11T15:01:38;7.30;;;2.63;;
12956;SDS011;6543;48.836;10.092;2022-09-11T15:04:05;6.38;;;5.78;;
12956;SDS011;6543;48.836;10.092;2022-09-11T15:06:34;4.00;;;3.15;;
12956;SDS011;6543;48.836;10.092;2022-09-11T15:09:01;5.63;;;4.28;;
12956;SDS011;6543;48.836;10.092;2022-09-11T15:11:28;12.25;;;9.00;;
12956;SDS011;6543;48.836;10.092;2022-09-11T15:13:57;33.35;;;24.13;;